sensor_id;sensor_type;location;lat;lon;timestamp;P1;durP1;ratioP1;P2;durP2;ratioP2
42194;SDS011;27863;49.440;11.102;2022-12-18T00:02:50;40.37;;;20.53;;
42194;SDS011;27863;49.440;11.102;2022-12-18T00:05:52;26.80;;;19.13;;
42194;SDS011;27863;49.440;11.102;2022-12-18T00:08:55;31.87;;;22.00;;
42194;SDS011;27863;49.440;11.102;2022-12-18T00:11:59;33.93;;;19.80;;
42194;SDS011;27863;49.440;11.102;2022-12-18T00:15:00;34.93;;;20.30;;
42194;SDS011;27863;49.440;11.102;2022-12-18T00:18:02;34.07;;;18.40;;
42194;SDS011;27863;49.440;11.102;2022-12-18T00:21:04;32.30;;;20.87;;
42194;SDS011;27863;49.440;11.102;2022-12-18T00:24:07;41.03;;;20.50;;
42194;SDS011;27863;49.440;11.102;2022-12-18T00:27:07;27.83;;;18.07;;
42194;SDS011;27863;49.440;11.102;2022-12-18T00:30:08;34.23;;;20.83;;
42194;SDS011;27863;49.440;11.102;2022-12-18T00:33:09;44.50;;;18.97;;
42194;SDS011;27863;49.440;11.102;2022-12-18T00:36:11;33.30;;;18.50;;
42194;SDS011;27863;49.440;11.102;2022-12-18T00:39:13;34.93;;;17.70;;
42194;SDS011;27863;49.440;11.102;2022-12-18T00:42:17;25.70;;;18.00;;
42194;SDS011;27863;49.440;11.102;2022-12-18T00:45:36;40.43;;;20.43;;
42194;SDS011;27863;49.440;11.102;2022-12-18T00:48:38;29.63;;;19.50;;
42194;SDS011;27863;49.440;11.102;2022-12-18T00:51:39;29.17;;;20.67;;
42194;SDS011;27863;49.440;11.102;2022-12-18T00:54:39;34.30;;;19.50;;
42194;SDS011;27863;49.440;11.102;2022-12-18T00:57:40;29.13;;;19.43;;
42194;SDS011;27863;49.440;11.102;2022-12-18T01:00:41;31.37;;;20.30;;
42194;SDS011;27863;49.440;11.102;2022-12-18T01:03:44;42.27;;;22.03;;
42194;SDS011;27863;49.440;11.102;2022-12-18T01:06:50;30.10;;;18.87;;
42194;SDS011;27863;49.440;11.102;2022-12-18T01:09:50;36.87;;;20.57;;
42194;SDS011;27863;49.440;11.102;2022-12-18T01:12:51;44.27;;;21.63;;
42194;SDS011;27863;49.440;11.102;2022-12-18T01:15:52;29.33;;;21.10;;
42194;SDS011;27863;49.440;11.102;2022-12-18T01:18:52;34.07;;;20.83;;
42194;SDS011;27863;49.440;11.102;2022-12-18T01:21:54;36.77;;;20.30;;
42194;SDS011;27863;49.440;11.102;2022-12-18T01:24:55;35.03;;;19.70;;
42194;SDS011;27863;49.440;11.102;2022-12-18T01:27:56;37.77;;;21.80;;
42194;SDS011;27863;49.440;11.102;2022-12-18T01:31:08;36.97;;;20.70;;
42194;SDS011;27863;49.440;11.102;2022-12-18T01:34:25;32.97;;;20.30;;
42194;SDS011;27863;49.440;11.102;2022-12-18T01:37:25;39.40;;;22.13;;
42194;SDS011;27863;49.440;11.102;2022-12-18T01:40:26;29.03;;;18.60;;
42194;SDS011;27863;49.440;11.102;2022-12-18T01:46:52;37.73;;;20.23;;
42194;SDS011;27863;49.440;11.102;2022-12-18T01:49:53;37.60;;;19.03;;
42194;SDS011;27863;49.440;11.102;2022-12-18T01:52:59;36.43;;;19.47;;
42194;SDS011;27863;49.440;11.102;2022-12-18T01:56:03;30.80;;;19.87;;
42194;SDS011;27863;49.440;11.102;2022-12-18T01:59:04;36.30;;;18.43;;
42194;SDS011;27863;49.440;11.102;2022-12-18T02:02:07;24.37;;;17.73;;
42194;SDS011;27863;49.440;11.102;2022-12-18T02:05:08;31.50;;;18.10;;
42194;SDS011;27863;49.440;11.102;2022-12-18T02:08:16;32.33;;;19.67;;
42194;SDS011;27863;49.440;11.102;2022-12-18T02:14:45;26.67;;;18.63;;
42194;SDS011;27863;49.440;11.102;2022-12-18T02:18:37;19.73;;;17.00;;
42194;SDS011;27863;49.440;11.102;2022-12-18T02:21:36;32.90;;;18.00;;
42194;SDS011;27863;49.440;11.102;2022-12-18T02:28:17;21.50;;;15.57;;
42194;SDS011;27863;49.440;11.102;2022-12-18T02:31:27;25.57;;;17.03;;
42194;SDS011;27863;49.440;11.102;2022-12-18T02:34:33;24.80;;;17.23;;
42194;SDS011;27863;49.440;11.102;2022-12-18T02:37:37;25.70;;;16.33;;
42194;SDS011;27863;49.440;11.102;2022-12-18T02:40:40;30.43;;;17.97;;
42194;SDS011;27863;49.440;11.102;2022-12-18T02:43:52;23.80;;;16.80;;
42194;SDS011;27863;49.440;11.102;2022-12-18T02:46:55;55.20;;;17.83;;
42194;SDS011;27863;49.440;11.102;2022-12-18T02:56:26;25.73;;;17.27;;
42194;SDS011;27863;49.440;11.102;2022-12-18T02:59:39;22.07;;;14.03;;
42194;SDS011;27863;49.440;11.102;2022-12-18T03:02:46;24.23;;;15.27;;
42194;SDS011;27863;49.440;11.102;2022-12-18T03:05:52;29.27;;;16.90;;
42194;SDS011;27863;49.440;11.102;2022-12-18T03:09:02;29.23;;;15.73;;
42194;SDS011;27863;49.440;11.102;2022-12-18T03:12:29;38.13;;;15.27;;
42194;SDS011;27863;49.440;11.102;2022-12-18T03:15:36;21.93;;;15.90;;
42194;SDS011;27863;49.440;11.102;2022-12-18T03:18:53;32.77;;;16.03;;
42194;SDS011;27863;49.440;11.102;2022-12-18T03:22:00;26.73;;;15.40;;
42194;SDS011;27863;49.440;11.102;2022-12-18T03:25:09;32.13;;;17.17;;
42194;SDS011;27863;49.440;11.102;2022-12-18T03:28:12;24.17;;;13.83;;
42194;SDS011;27863;49.440;11.102;2022-12-18T03:31:18;21.80;;;15.13;;
42194;SDS011;27863;49.440;11.102;2022-12-18T03:34:25;23.10;;;14.33;;
42194;SDS011;27863;49.440;11.102;2022-12-18T03:37:32;25.30;;;15.37;;
42194;SDS011;27863;49.440;11.102;2022-12-18T03:50:14;23.00;;;15.37;;
42194;SDS011;27863;49.440;11.102;2022-12-18T03:56:45;17.67;;;13.33;;
42194;SDS011;27863;49.440;11.102;2022-12-18T03:59:49;22.30;;;14.63;;
42194;SDS011;27863;49.440;11.102;2022-12-18T04:02:55;16.80;;;12.77;;
42194;SDS011;27863;49.440;11.102;2022-12-18T04:06:05;19.53;;;14.90;;
42194;SDS011;27863;49.440;11.102;2022-12-18T04:09:06;21.03;;;13.20;;
42194;SDS011;27863;49.440;11.102;2022-12-18T04:12:11;21.47;;;14.10;;
42194;SDS011;27863;49.440;11.102;2022-12-18T04:15:13;23.23;;;15.70;;
42194;SDS011;27863;49.440;11.102;2022-12-18T04:18:14;23.37;;;13.10;;
42194;SDS011;27863;49.440;11.102;2022-12-18T04:21:17;25.63;;;14.83;;
42194;SDS011;27863;49.440;11.102;2022-12-18T04:24:22;23.93;;;14.40;;
42194;SDS011;27863;49.440;11.102;2022-12-18T04:27:33;22.13;;;13.53;;
42194;SDS011;27863;49.440;11.102;2022-12-18T04:30:36;20.40;;;14.20;;
42194;SDS011;27863;49.440;11.102;2022-12-18T04:33:38;22.50;;;14.20;;
42194;SDS011;27863;49.440;11.102;2022-12-18T04:36:39;26.10;;;15.10;;
42194;SDS011;27863;49.440;11.102;2022-12-18T04:39:40;24.53;;;15.07;;
42194;SDS011;27863;49.440;11.102;2022-12-18T04:42:48;24.13;;;14.40;;
42194;SDS011;27863;49.440;11.102;2022-12-18T04:45:49;19.07;;;13.97;;
42194;SDS011;27863;49.440;11.102;2022-12-18T04:48:50;26.07;;;14.27;;
42194;SDS011;27863;49.440;11.102;2022-12-18T04:51:51;26.53;;;14.53;;
42194;SDS011;27863;49.440;11.102;2022-12-18T04:54:53;23.53;;;16.00;;
42194;SDS011;27863;49.440;11.102;2022-12-18T04:57:53;20.63;;;12.83;;
42194;SDS011;27863;49.440;11.102;2022-12-18T05:00:54;20.40;;;13.80;;
42194;SDS011;27863;49.440;11.102;2022-12-18T05:03:54;23.67;;;13.73;;
42194;SDS011;27863;49.440;11.102;2022-12-18T05:06:56;24.23;;;13.97;;
42194;SDS011;27863;49.440;11.102;2022-12-18T05:09:56;18.83;;;14.13;;
42194;SDS011;27863;49.440;11.102;2022-12-18T05:12:57;21.10;;;14.87;;
42194;SDS011;27863;49.440;11.102;2022-12-18T05:15:59;17.13;;;12.83;;
42194;SDS011;27863;49.440;11.102;2022-12-18T05:18:59;25.33;;;13.40;;
42194;SDS011;27863;49.440;11.102;2022-12-18T05:22:00;18.30;;;12.00;;
42194;SDS011;27863;49.440;11.102;2022-12-18T05:25:01;21.33;;;12.73;;
42194;SDS011;27863;49.440;11.102;2022-12-18T05:28:03;17.90;;;13.43;;
42194;SDS011;27863;49.440;11.102;2022-12-18T05:31:04;26.27;;;15.03;;
42194;SDS011;27863;49.440;11.102;2022-12-18T05:34:05;20.80;;;12.83;;
42194;SDS011;27863;49.440;11.102;2022-12-18T05:37:06;21.30;;;13.33;;
42194;SDS011;27863;49.440;11.102;2022-12-18T05:40:06;17.27;;;11.87;;
42194;SDS011;27863;49.440;11.102;2022-12-18T05:43:07;21.70;;;12.77;;
42194;SDS011;27863;49.440;11.102;2022-12-18T05:46:11;19.70;;;13.40;;
42194;SDS011;27863;49.440;11.102;2022-12-18T05:49:13;15.73;;;12.73;;
42194;SDS011;27863;49.440;11.102;2022-12-18T05:52:13;18.03;;;13.10;;
42194;SDS011;27863;49.440;11.102;2022-12-18T05:55:14;19.47;;;12.47;;
42194;SDS011;27863;49.440;11.102;2022-12-18T05:58:15;29.37;;;13.87;;
42194;SDS011;27863;49.440;11.102;2022-12-18T06:01:17;19.83;;;12.83;;
42194;SDS011;27863;49.440;11.102;2022-12-18T06:04:20;17.80;;;12.93;;
42194;SDS011;27863;49.440;11.102;2022-12-18T06:07:21;25.40;;;14.67;;
42194;SDS011;27863;49.440;11.102;2022-12-18T06:10:25;26.70;;;14.30;;
42194;SDS011;27863;49.440;11.102;2022-12-18T06:13:26;18.87;;;12.10;;
42194;SDS011;27863;49.440;11.102;2022-12-18T06:16:27;19.57;;;13.37;;
42194;SDS011;27863;49.440;11.102;2022-12-18T06:19:30;17.57;;;13.60;;
42194;SDS011;27863;49.440;11.102;2022-12-18T06:22:31;21.03;;;12.77;;
42194;SDS011;27863;49.440;11.102;2022-12-18T06:25:32;22.53;;;14.57;;
42194;SDS011;27863;49.440;11.102;2022-12-18T06:28:35;22.23;;;13.37;;
42194;SDS011;27863;49.440;11.102;2022-12-18T06:31:37;23.70;;;12.70;;
42194;SDS011;27863;49.440;11.102;2022-12-18T06:34:37;19.47;;;12.30;;
42194;SDS011;27863;49.440;11.102;2022-12-18T06:37:39;20.00;;;12.10;;
42194;SDS011;27863;49.440;11.102;2022-12-18T06:40:39;20.87;;;14.07;;
42194;SDS011;27863;49.440;11.102;2022-12-18T06:43:40;21.10;;;12.70;;
42194;SDS011;27863;49.440;11.102;2022-12-18T06:46:41;23.57;;;13.03;;
42194;SDS011;27863;49.440;11.102;2022-12-18T06:49:42;18.93;;;13.57;;
42194;SDS011;27863;49.440;11.102;2022-12-18T06:52:49;21.57;;;12.97;;
42194;SDS011;27863;49.440;11.102;2022-12-18T06:55:50;16.57;;;12.67;;
42194;SDS011;27863;49.440;11.102;2022-12-18T06:58:51;18.87;;;13.47;;
42194;SDS011;27863;49.440;11.102;2022-12-18T07:01:51;27.60;;;14.40;;
42194;SDS011;27863;49.440;11.102;2022-12-18T07:04:53;20.40;;;13.80;;
42194;SDS011;27863;49.440;11.102;2022-12-18T07:07:54;25.83;;;13.97;;
42194;SDS011;27863;49.440;11.102;2022-12-18T07:10:54;18.63;;;11.57;;
42194;SDS011;27863;49.440;11.102;2022-12-18T07:13:55;21.30;;;13.30;;
42194;SDS011;27863;49.440;11.102;2022-12-18T07:16:55;24.37;;;12.77;;
42194;SDS011;27863;49.440;11.102;2022-12-18T07:19:56;18.13;;;12.07;;
42194;SDS011;27863;49.440;11.102;2022-12-18T07:22:56;26.93;;;13.10;;
42194;SDS011;27863;49.440;11.102;2022-12-18T07:26:01;21.90;;;13.73;;
42194;SDS011;27863;49.440;11.102;2022-12-18T07:29:03;24.83;;;12.20;;
42194;SDS011;27863;49.440;11.102;2022-12-18T07:32:04;20.73;;;13.57;;
42194;SDS011;27863;49.440;11.102;2022-12-18T07:35:05;18.10;;;12.73;;
42194;SDS011;27863;49.440;11.102;2022-12-18T07:38:07;18.80;;;13.93;;
42194;SDS011;27863;49.440;11.102;2022-12-18T07:41:09;24.53;;;14.00;;
42194;SDS011;27863;49.440;11.102;2022-12-18T07:44:11;19.83;;;12.47;;
42194;SDS011;27863;49.440;11.102;2022-12-18T07:47:12;31.87;;;14.80;;
42194;SDS011;27863;49.440;11.102;2022-12-18T07:50:13;21.50;;;13.80;;
42194;SDS011;27863;49.440;11.102;2022-12-18T07:53:13;19.83;;;13.43;;
42194;SDS011;27863;49.440;11.102;2022-12-18T07:56:14;30.67;;;14.67;;
42194;SDS011;27863;49.440;11.102;2022-12-18T07:59:15;24.17;;;13.50;;
42194;SDS011;27863;49.440;11.102;2022-12-18T08:02:15;18.07;;;11.87;;
42194;SDS011;27863;49.440;11.102;2022-12-18T08:05:16;29.13;;;14.10;;
42194;SDS011;27863;49.440;11.102;2022-12-18T08:08:17;23.30;;;12.50;;
42194;SDS011;27863;49.440;11.102;2022-12-18T08:11:21;25.20;;;12.97;;
42194;SDS011;27863;49.440;11.102;2022-12-18T08:14:25;17.27;;;12.73;;
42194;SDS011;27863;49.440;11.102;2022-12-18T08:17:27;19.67;;;12.07;;
42194;SDS011;27863;49.440;11.102;2022-12-18T08:20:29;21.83;;;12.27;;
42194;SDS011;27863;49.440;11.102;2022-12-18T08:23:32;19.87;;;13.07;;
42194;SDS011;27863;49.440;11.102;2022-12-18T08:26:33;18.53;;;12.10;;
42194;SDS011;27863;49.440;11.102;2022-12-18T08:29:33;19.47;;;12.63;;
42194;SDS011;27863;49.440;11.102;2022-12-18T08:32:34;15.43;;;12.90;;
42194;SDS011;27863;49.440;11.102;2022-12-18T08:35:36;21.00;;;12.23;;
42194;SDS011;27863;49.440;11.102;2022-12-18T08:38:36;14.33;;;11.87;;
42194;SDS011;27863;49.440;11.102;2022-12-18T08:41:38;13.53;;;10.93;;
42194;SDS011;27863;49.440;11.102;2022-12-18T08:44:40;14.90;;;12.17;;
42194;SDS011;27863;49.440;11.102;2022-12-18T08:47:41;16.00;;;11.37;;
42194;SDS011;27863;49.440;11.102;2022-12-18T08:50:42;16.70;;;11.97;;
42194;SDS011;27863;49.440;11.102;2022-12-18T08:53:42;20.00;;;12.63;;
42194;SDS011;27863;49.440;11.102;2022-12-18T08:56:46;22.20;;;11.30;;
42194;SDS011;27863;49.440;11.102;2022-12-18T08:59:46;15.57;;;12.50;;
42194;SDS011;27863;49.440;11.102;2022-12-18T09:02:47;20.50;;;12.50;;
42194;SDS011;27863;49.440;11.102;2022-12-18T09:05:49;19.23;;;11.30;;
42194;SDS011;27863;49.440;11.102;2022-12-18T09:08:50;18.90;;;11.60;;
42194;SDS011;27863;49.440;11.102;2022-12-18T09:11:52;21.33;;;14.63;;
42194;SDS011;27863;49.440;11.102;2022-12-18T09:14:52;17.80;;;12.07;;
42194;SDS011;27863;49.440;11.102;2022-12-18T09:17:54;17.53;;;12.13;;
42194;SDS011;27863;49.440;11.102;2022-12-18T09:20:54;19.63;;;13.43;;
42194;SDS011;27863;49.440;11.102;2022-12-18T09:23:56;17.27;;;13.50;;
42194;SDS011;27863;49.440;11.102;2022-12-18T09:26:56;20.90;;;10.77;;
42194;SDS011;27863;49.440;11.102;2022-12-18T09:29:57;16.00;;;12.67;;
42194;SDS011;27863;49.440;11.102;2022-12-18T09:32:58;12.93;;;9.67;;
42194;SDS011;27863;49.440;11.102;2022-12-18T09:36:00;22.13;;;11.93;;
42194;SDS011;27863;49.440;11.102;2022-12-18T09:39:02;15.70;;;11.17;;
42194;SDS011;27863;49.440;11.102;2022-12-18T09:42:03;15.50;;;10.87;;
42194;SDS011;27863;49.440;11.102;2022-12-18T09:45:04;14.27;;;11.63;;
42194;SDS011;27863;49.440;11.102;2022-12-18T09:48:05;14.43;;;11.10;;
42194;SDS011;27863;49.440;11.102;2022-12-18T09:51:33;16.53;;;11.33;;
42194;SDS011;27863;49.440;11.102;2022-12-18T09:54:40;21.43;;;12.33;;
42194;SDS011;27863;49.440;11.102;2022-12-18T09:57:51;19.17;;;11.77;;
42194;SDS011;27863;49.440;11.102;2022-12-18T10:00:53;18.20;;;12.77;;
42194;SDS011;27863;49.440;11.102;2022-12-18T10:03:54;18.53;;;11.87;;
42194;SDS011;27863;49.440;11.102;2022-12-18T10:07:01;17.10;;;11.80;;
42194;SDS011;27863;49.440;11.102;2022-12-18T10:10:25;17.07;;;13.03;;
42194;SDS011;27863;49.440;11.102;2022-12-18T10:13:51;22.27;;;13.87;;
42194;SDS011;27863;49.440;11.102;2022-12-18T10:26:41;16.73;;;11.40;;
42194;SDS011;27863;49.440;11.102;2022-12-18T10:29:44;17.53;;;11.97;;
42194;SDS011;27863;49.440;11.102;2022-12-18T10:32:46;15.43;;;11.47;;
42194;SDS011;27863;49.440;11.102;2022-12-18T10:35:49;18.93;;;11.43;;
42194;SDS011;27863;49.440;11.102;2022-12-18T10:38:50;23.40;;;11.47;;
42194;SDS011;27863;49.440;11.102;2022-12-18T10:41:51;16.23;;;12.30;;
42194;SDS011;27863;49.440;11.102;2022-12-18T10:45:00;20.90;;;14.43;;
42194;SDS011;27863;49.440;11.102;2022-12-18T10:48:18;17.67;;;12.00;;
42194;SDS011;27863;49.440;11.102;2022-12-18T10:54:33;18.90;;;12.67;;
42194;SDS011;27863;49.440;11.102;2022-12-18T10:57:35;22.23;;;11.77;;
42194;SDS011;27863;49.440;11.102;2022-12-18T11:00:39;18.07;;;11.67;;
42194;SDS011;27863;49.440;11.102;2022-12-18T11:03:58;13.70;;;11.40;;
42194;SDS011;27863;49.440;11.102;2022-12-18T11:07:05;14.47;;;11.67;;
42194;SDS011;27863;49.440;11.102;2022-12-18T11:10:15;20.33;;;13.00;;
42194;SDS011;27863;49.440;11.102;2022-12-18T11:13:24;15.57;;;10.57;;
42194;SDS011;27863;49.440;11.102;2022-12-18T11:16:27;15.67;;;12.03;;
42194;SDS011;27863;49.440;11.102;2022-12-18T11:19:30;15.50;;;11.37;;
42194;SDS011;27863;49.440;11.102;2022-12-18T11:22:35;17.33;;;12.03;;
42194;SDS011;27863;49.440;11.102;2022-12-18T11:25:38;16.30;;;11.43;;
42194;SDS011;27863;49.440;11.102;2022-12-18T11:28:52;14.63;;;10.73;;
42194;SDS011;27863;49.440;11.102;2022-12-18T11:32:19;17.53;;;11.07;;
42194;SDS011;27863;49.440;11.102;2022-12-18T11:35:23;15.20;;;9.97;;
42194;SDS011;27863;49.440;11.102;2022-12-18T11:38:32;15.83;;;11.30;;
42194;SDS011;27863;49.440;11.102;2022-12-18T11:41:39;15.90;;;11.53;;
42194;SDS011;27863;49.440;11.102;2022-12-18T11:45:18;11.67;;;9.97;;
42194;SDS011;27863;49.440;11.102;2022-12-18T11:48:28;14.30;;;10.83;;
42194;SDS011;27863;49.440;11.102;2022-12-18T11:51:33;13.37;;;11.13;;
42194;SDS011;27863;49.440;11.102;2022-12-18T11:54:37;19.87;;;12.00;;
42194;SDS011;27863;49.440;11.102;2022-12-18T12:21:41;21.23;;;11.77;;
42194;SDS011;27863;49.440;11.102;2022-12-18T12:34:24;14.67;;;11.17;;
42194;SDS011;27863;49.440;11.102;2022-12-18T12:37:37;16.60;;;12.73;;
42194;SDS011;27863;49.440;11.102;2022-12-18T12:40:44;16.80;;;12.37;;
42194;SDS011;27863;49.440;11.102;2022-12-18T12:44:07;27.47;;;12.03;;
42194;SDS011;27863;49.440;11.102;2022-12-18T12:47:20;14.80;;;10.20;;
42194;SDS011;27863;49.440;11.102;2022-12-18T12:50:25;15.43;;;10.43;;
42194;SDS011;27863;49.440;11.102;2022-12-18T12:53:28;16.20;;;11.43;;
42194;SDS011;27863;49.440;11.102;2022-12-18T12:59:50;18.30;;;10.93;;
42194;SDS011;27863;49.440;11.102;2022-12-18T13:06:37;14.90;;;10.83;;
42194;SDS011;27863;49.440;11.102;2022-12-18T13:13:25;17.07;;;12.43;;
42194;SDS011;27863;49.440;11.102;2022-12-18T13:16:25;13.57;;;10.50;;
42194;SDS011;27863;49.440;11.102;2022-12-18T13:19:31;17.33;;;12.20;;
42194;SDS011;27863;49.440;11.102;2022-12-18T13:22:38;17.20;;;11.90;;
42194;SDS011;27863;49.440;11.102;2022-12-18T13:25:45;19.07;;;12.30;;
42194;SDS011;27863;49.440;11.102;2022-12-18T13:41:26;12.80;;;11.40;;
42194;SDS011;27863;49.440;11.102;2022-12-18T13:47:33;12.07;;;10.57;;
42194;SDS011;27863;49.440;11.102;2022-12-18T13:50:35;14.23;;;11.30;;
42194;SDS011;27863;49.440;11.102;2022-12-18T13:53:43;16.60;;;10.97;;
42194;SDS011;27863;49.440;11.102;2022-12-18T13:56:47;15.77;;;11.00;;
42194;SDS011;27863;49.440;11.102;2022-12-18T13:59:48;13.23;;;10.80;;
42194;SDS011;27863;49.440;11.102;2022-12-18T14:02:50;11.67;;;10.17;;
42194;SDS011;27863;49.440;11.102;2022-12-18T14:05:56;11.80;;;9.50;;
42194;SDS011;27863;49.440;11.102;2022-12-18T14:09:01;13.83;;;10.83;;
42194;SDS011;27863;49.440;11.102;2022-12-18T14:12:04;14.17;;;10.03;;
42194;SDS011;27863;49.440;11.102;2022-12-18T14:21:48;14.10;;;11.60;;
42194;SDS011;27863;49.440;11.102;2022-12-18T14:25:04;19.33;;;11.87;;
42194;SDS011;27863;49.440;11.102;2022-12-18T14:28:14;12.00;;;10.00;;
42194;SDS011;27863;49.440;11.102;2022-12-18T14:31:22;16.47;;;11.43;;
42194;SDS011;27863;49.440;11.102;2022-12-18T14:34:26;13.50;;;10.53;;
42194;SDS011;27863;49.440;11.102;2022-12-18T14:37:26;15.57;;;10.87;;
42194;SDS011;27863;49.440;11.102;2022-12-18T14:40:27;15.03;;;12.07;;
42194;SDS011;27863;49.440;11.102;2022-12-18T14:43:28;16.97;;;11.33;;
42194;SDS011;27863;49.440;11.102;2022-12-18T14:49:33;15.83;;;11.20;;
42194;SDS011;27863;49.440;11.102;2022-12-18T14:52:34;20.70;;;13.17;;
42194;SDS011;27863;49.440;11.102;2022-12-18T14:55:35;14.07;;;12.67;;
42194;SDS011;27863;49.440;11.102;2022-12-18T14:58:36;14.83;;;13.23;;
42194;SDS011;27863;49.440;11.102;2022-12-18T15:01:37;14.33;;;12.63;;
42194;SDS011;27863;49.440;11.102;2022-12-18T15:04:45;14.73;;;12.37;;
42194;SDS011;27863;49.440;11.102;2022-12-18T15:07:46;22.77;;;13.97;;
42194;SDS011;27863;49.440;11.102;2022-12-18T15:10:48;17.10;;;12.30;;
42194;SDS011;27863;49.440;11.102;2022-12-18T15:13:49;16.00;;;11.63;;
42194;SDS011;27863;49.440;11.102;2022-12-18T15:16:51;18.63;;;13.40;;
42194;SDS011;27863;49.440;11.102;2022-12-18T15:19:53;25.83;;;12.00;;
42194;SDS011;27863;49.440;11.102;2022-12-18T15:23:02;14.37;;;11.17;;
42194;SDS011;27863;49.440;11.102;2022-12-18T15:26:04;16.50;;;13.30;;
42194;SDS011;27863;49.440;11.102;2022-12-18T15:29:15;19.33;;;12.93;;
42194;SDS011;27863;49.440;11.102;2022-12-18T15:32:20;12.07;;;10.77;;
42194;SDS011;27863;49.440;11.102;2022-12-18T15:35:22;16.50;;;11.20;;
42194;SDS011;27863;49.440;11.102;2022-12-18T15:38:24;14.87;;;12.10;;
42194;SDS011;27863;49.440;11.102;2022-12-18T15:41:25;21.97;;;13.03;;
42194;SDS011;27863;49.440;11.102;2022-12-18T15:44:26;17.17;;;12.17;;
42194;SDS011;27863;49.440;11.102;2022-12-18T15:47:27;18.73;;;12.37;;
42194;SDS011;27863;49.440;11.102;2022-12-18T15:50:29;15.00;;;11.10;;
42194;SDS011;27863;49.440;11.102;2022-12-18T15:53:31;14.47;;;11.97;;
42194;SDS011;27863;49.440;11.102;2022-12-18T15:56:35;25.83;;;11.80;;
42194;SDS011;27863;49.440;11.102;2022-12-18T15:59:54;15.13;;;11.97;;
42194;SDS011;27863;49.440;11.102;2022-12-18T16:02:58;16.90;;;11.50;;
42194;SDS011;27863;49.440;11.102;2022-12-18T16:06:02;14.20;;;11.00;;
42194;SDS011;27863;49.440;11.102;2022-12-18T16:09:02;22.90;;;11.63;;
42194;SDS011;27863;49.440;11.102;2022-12-18T16:12:03;12.50;;;9.70;;
42194;SDS011;27863;49.440;11.102;2022-12-18T16:15:04;15.03;;;12.43;;
42194;SDS011;27863;49.440;11.102;2022-12-18T16:18:05;15.43;;;11.20;;
42194;SDS011;27863;49.440;11.102;2022-12-18T16:21:07;17.83;;;12.90;;
42194;SDS011;27863;49.440;11.102;2022-12-18T16:24:15;10.57;;;8.30;;
42194;SDS011;27863;49.440;11.102;2022-12-18T16:27:24;17.10;;;12.47;;
42194;SDS011;27863;49.440;11.102;2022-12-18T16:30:26;17.67;;;10.50;;
42194;SDS011;27863;49.440;11.102;2022-12-18T16:33:30;17.53;;;11.90;;
42194;SDS011;27863;49.440;11.102;2022-12-18T16:36:31;15.30;;;11.73;;
42194;SDS011;27863;49.440;11.102;2022-12-18T16:39:32;20.73;;;12.77;;
42194;SDS011;27863;49.440;11.102;2022-12-18T16:42:34;17.67;;;12.30;;
42194;SDS011;27863;49.440;11.102;2022-12-18T16:45:37;23.33;;;14.10;;
42194;SDS011;27863;49.440;11.102;2022-12-18T16:48:38;17.60;;;12.63;;
42194;SDS011;27863;49.440;11.102;2022-12-18T16:51:39;21.10;;;13.17;;
42194;SDS011;27863;49.440;11.102;2022-12-18T16:54:42;17.70;;;12.67;;
42194;SDS011;27863;49.440;11.102;2022-12-18T16:57:43;19.87;;;11.77;;
42194;SDS011;27863;49.440;11.102;2022-12-18T17:00:45;15.53;;;12.13;;
42194;SDS011;27863;49.440;11.102;2022-12-18T17:03:54;21.47;;;13.00;;
42194;SDS011;27863;49.440;11.102;2022-12-18T17:06:56;16.07;;;12.07;;
42194;SDS011;27863;49.440;11.102;2022-12-18T17:09:56;20.23;;;12.23;;
42194;SDS011;27863;49.440;11.102;2022-12-18T17:12:58;17.47;;;12.70;;
42194;SDS011;27863;49.440;11.102;2022-12-18T17:16:02;16.10;;;12.97;;
42194;SDS011;27863;49.440;11.102;2022-12-18T17:19:03;20.83;;;13.77;;
42194;SDS011;27863;49.440;11.102;2022-12-18T17:22:04;20.30;;;13.10;;
42194;SDS011;27863;49.440;11.102;2022-12-18T17:25:07;20.50;;;12.53;;
42194;SDS011;27863;49.440;11.102;2022-12-18T17:28:09;16.47;;;12.43;;
42194;SDS011;27863;49.440;11.102;2022-12-18T17:31:11;18.33;;;12.73;;
42194;SDS011;27863;49.440;11.102;2022-12-18T17:34:14;19.63;;;13.30;;
42194;SDS011;27863;49.440;11.102;2022-12-18T17:37:15;17.77;;;13.83;;
42194;SDS011;27863;49.440;11.102;2022-12-18T17:40:16;18.80;;;13.07;;
42194;SDS011;27863;49.440;11.102;2022-12-18T17:43:19;20.70;;;13.73;;
42194;SDS011;27863;49.440;11.102;2022-12-18T17:46:20;22.00;;;13.17;;
42194;SDS011;27863;49.440;11.102;2022-12-18T17:49:21;22.03;;;13.47;;
42194;SDS011;27863;49.440;11.102;2022-12-18T17:52:22;25.17;;;14.00;;
42194;SDS011;27863;49.440;11.102;2022-12-18T17:55:23;19.67;;;13.20;;
42194;SDS011;27863;49.440;11.102;2022-12-18T17:58:25;18.80;;;12.47;;
42194;SDS011;27863;49.440;11.102;2022-12-18T18:01:28;17.07;;;13.60;;
42194;SDS011;27863;49.440;11.102;2022-12-18T18:04:31;16.10;;;12.63;;
42194;SDS011;27863;49.440;11.102;2022-12-18T18:07:31;18.60;;;12.60;;
42194;SDS011;27863;49.440;11.102;2022-12-18T18:10:35;17.73;;;12.87;;
42194;SDS011;27863;49.440;11.102;2022-12-18T18:13:40;16.83;;;13.53;;
42194;SDS011;27863;49.440;11.102;2022-12-18T18:16:59;21.77;;;12.67;;
42194;SDS011;27863;49.440;11.102;2022-12-18T18:20:01;14.47;;;12.97;;
42194;SDS011;27863;49.440;11.102;2022-12-18T18:23:02;22.43;;;12.77;;
42194;SDS011;27863;49.440;11.102;2022-12-18T18:26:04;17.20;;;13.10;;
42194;SDS011;27863;49.440;11.102;2022-12-18T18:29:06;21.10;;;12.37;;
42194;SDS011;27863;49.440;11.102;2022-12-18T18:32:23;18.67;;;12.67;;
42194;SDS011;27863;49.440;11.102;2022-12-18T18:35:23;16.37;;;12.93;;
42194;SDS011;27863;49.440;11.102;2022-12-18T18:38:24;18.23;;;13.63;;
42194;SDS011;27863;49.440;11.102;2022-12-18T18:41:24;15.43;;;13.07;;
42194;SDS011;27863;49.440;11.102;2022-12-18T18:44:25;22.23;;;12.87;;
42194;SDS011;27863;49.440;11.102;2022-12-18T18:47:27;18.27;;;11.90;;
42194;SDS011;27863;49.440;11.102;2022-12-18T18:50:30;18.20;;;14.10;;
42194;SDS011;27863;49.440;11.102;2022-12-18T18:53:35;19.33;;;13.07;;
42194;SDS011;27863;49.440;11.102;2022-12-18T18:56:41;22.53;;;13.27;;
42194;SDS011;27863;49.440;11.102;2022-12-18T18:59:44;17.87;;;13.70;;
42194;SDS011;27863;49.440;11.102;2022-12-18T19:02:45;17.27;;;12.73;;
42194;SDS011;27863;49.440;11.102;2022-12-18T19:05:52;14.37;;;11.03;;
42194;SDS011;27863;49.440;11.102;2022-12-18T19:09:00;13.37;;;11.90;;
42194;SDS011;27863;49.440;11.102;2022-12-18T19:12:01;24.77;;;13.20;;
42194;SDS011;27863;49.440;11.102;2022-12-18T19:15:21;21.60;;;12.83;;
42194;SDS011;27863;49.440;11.102;2022-12-18T19:18:22;20.90;;;13.23;;
42194;SDS011;27863;49.440;11.102;2022-12-18T19:21:23;15.50;;;12.90;;
42194;SDS011;27863;49.440;11.102;2022-12-18T19:24:25;16.50;;;12.70;;
42194;SDS011;27863;49.440;11.102;2022-12-18T19:27:26;14.07;;;12.43;;
42194;SDS011;27863;49.440;11.102;2022-12-18T19:30:28;15.17;;;12.13;;
42194;SDS011;27863;49.440;11.102;2022-12-18T19:33:30;15.93;;;12.27;;